KALX/ALX METAR and TAF weather

Enter ICAO airport designator
Station Type Date Time Source
KALX METAR 2020/10/22 03:35 UTC NOAA

KALX 220335Z AUTO 09003KT 10SM CLR 21/20 A3016 RMK AO2 T02120201


Station Type Date Time Source
KALX Decoded METAR 2020/10/22 03:35 UTC NOAA

Alexander City, Thomas C Russell Field Airport, AL, United States (KALX) 32-54-53N 085-57-46W
Oct 21, 2020 - 11:35 PM EDT / 2020.10.22 0335 UTC
Wind: from the E (090 degrees) at 3 MPH (3 KT):0
Visibility: 10 mile(s):0
Sky conditions: clear
Temperature: 70.2 F (21.2 C)
Dew Point: 68.2 F (20.1 C)
Relative Humidity: 93%
Pressure (altimeter): 30.16 in. Hg (1021 hPa)
ob: KALX 220335Z AUTO 09003KT 10SM CLR 21/20 A3016 RMK AO2 T02120201
cycle: 3

Station Type Date Time Source
KALX TAF UTC NOAA

Error!

Example: see airport list